Keratsinion, Greece

6:09 PM EET on February 13, 2016 (GMT +0200)
Meteo Piraeus | | Change Station
CLOSE
Current Station
Personal Weather Station
Location: Piraeus, Attica
Elevation: 130 ft
Nearby Weather Stations

Elev 130 ft 37.95 °N, 23.63 °E | Updated 0 second ago

Mostly Cloudy
Mostly Cloudy
64.2 °F
Feels Like 64.2 °F
N
3.0
Wind Variable Wind from South
Gusts 11.0 mph

Today
High -- | Low -- °F
--% Chance of Precip.
Yesterday
High -- | Low -- °F
Precip. -- in
Pressure 29.71 in
Visibility 6.2 miles
Clouds Scattered Clouds 2500 ft
Scattered Clouds 7000 ft
Mostly Cloudy 18000 ft
Dew Point 53 °F
Humidity 67%
Rainfall 0.00 in
Snow Depth Not available.
7:18 AM 6:01 PM
Waxing Crescent, 32% visible
METAR LGEL 131550Z 18005KT 9999 SCT025 SCT070 BKN180 17/10 Q1006
Pressure 29.71 in
Visibility 6.2 miles
Clouds Scattered Clouds 2500 ft
Scattered Clouds 7000 ft
Mostly Cloudy 18000 ft
Dew Point 53 °F
Humidity 67%
Rainfall 0.00 in
Snow Depth Not available.
7:18 AM 6:01 PM
Waxing Crescent, 32% visible
METAR LGEL 131550Z 18005KT 9999 SCT025 SCT070 BKN180 17/10 Q1006

10-Day Weather Forecast

Almanac

Astronomy

Feb. 13, 2016 Rise Set
Actual Time
Civil Twilight
Nautical Twilight
Astronomical Twilight
Moon
Length of Visible Light
Length of Day
Tomorrow will be .
, % of the Moon is Illuminated

Today's Extremes

Country Highs Country Lows

Community

WunderPhotos

Upload Photos

1,892,595 photos uploaded!

WunderBlog® & News

Nearby

Air Quality

  Air Quality AQ Index Pollutant
Not available.

Snow Depth

Station Depth Elevation

Earthquake Activity

City Distance Mag. Time & Date
Minimum magnitude displayed is 2.5.

Coastal Water Temperatures

Place Temperature

Stations

Nearby Weather Stations

Station Location Temp. Windchill Dew Point Humidity Wind Precip. Elev Updated Type